sensor_id;sensor_type;location;lat;lon;timestamp;temperature;humidity
19007;DHT22;9636;47.382;8.480;2024-02-16T00:02:04;11.30;99.90
19007;DHT22;9636;47.382;8.480;2024-02-16T00:04:30;11.30;99.90
19007;DHT22;9636;47.382;8.480;2024-02-16T00:06:57;11.30;99.90
19007;DHT22;9636;47.382;8.480;2024-02-16T00:09:24;11.30;99.90
19007;DHT22;9636;47.382;8.480;2024-02-16T00:11:52;11.10;99.90
19007;DHT22;9636;47.382;8.480;2024-02-16T00:14:19;11.10;99.90
19007;DHT22;9636;47.382;8.480;2024-02-16T00:16:47;11.20;99.90
19007;DHT22;9636;47.382;8.480;2024-02-16T00:19:14;11.00;99.90
19007;DHT22;9636;47.382;8.480;2024-02-16T00:21:41;11.00;99.90
19007;DHT22;9636;47.382;8.480;2024-02-16T00:24:08;11.10;99.90
19007;DHT22;9636;47.382;8.480;2024-02-16T00:26:35;11.00;99.90
19007;DHT22;9636;47.382;8.480;2024-02-16T00:29:04;11.10;99.90
19007;DHT22;9636;47.382;8.480;2024-02-16T00:31:30;11.00;99.90
19007;DHT22;9636;47.382;8.480;2024-02-16T00:33:57;11.10;99.90
19007;DHT22;9636;47.382;8.480;2024-02-16T00:36:26;11.10;99.90
19007;DHT22;9636;47.382;8.480;2024-02-16T00:38:52;11.00;99.90
19007;DHT22;9636;47.382;8.480;2024-02-16T00:41:19;11.00;99.90
19007;DHT22;9636;47.382;8.480;2024-02-16T00:43:46;11.00;99.90
19007;DHT22;9636;47.382;8.480;2024-02-16T00:46:14;10.80;99.90
19007;DHT22;9636;47.382;8.480;2024-02-16T00:48:41;10.80;99.90
19007;DHT22;9636;47.382;8.480;2024-02-16T00:51:08;10.90;99.90
19007;DHT22;9636;47.382;8.480;2024-02-16T00:53:35;11.00;99.90
19007;DHT22;9636;47.382;8.480;2024-02-16T00:56:02;11.10;99.90
19007;DHT22;9636;47.382;8.480;2024-02-16T00:58:29;11.10;99.90
19007;DHT22;9636;47.382;8.480;2024-02-16T01:00:56;11.10;99.90
19007;DHT22;9636;47.382;8.480;2024-02-16T01:03:24;11.00;99.90
19007;DHT22;9636;47.382;8.480;2024-02-16T01:05:51;10.90;99.90
19007;DHT22;9636;47.382;8.480;2024-02-16T01:08:18;10.80;99.90
19007;DHT22;9636;47.382;8.480;2024-02-16T01:10:45;10.80;99.90
19007;DHT22;9636;47.382;8.480;2024-02-16T01:13:13;10.80;99.90
19007;DHT22;9636;47.382;8.480;2024-02-16T01:15:39;10.80;99.90
19007;DHT22;9636;47.382;8.480;2024-02-16T01:18:07;10.70;99.90
19007;DHT22;9636;47.382;8.480;2024-02-16T01:20:35;10.70;99.90
19007;DHT22;9636;47.382;8.480;2024-02-16T01:23:02;10.70;99.90
19007;DHT22;9636;47.382;8.480;2024-02-16T01:25:30;10.60;99.90
19007;DHT22;9636;47.382;8.480;2024-02-16T01:27:57;10.50;99.90
19007;DHT22;9636;47.382;8.480;2024-02-16T01:30:24;10.60;99.90
19007;DHT22;9636;47.382;8.480;2024-02-16T01:32:50;10.50;99.90
19007;DHT22;9636;47.382;8.480;2024-02-16T01:35:17;10.30;99.90
19007;DHT22;9636;47.382;8.480;2024-02-16T01:37:45;10.30;99.90
19007;DHT22;9636;47.382;8.480;2024-02-16T01:40:12;10.00;99.90
19007;DHT22;9636;47.382;8.480;2024-02-16T01:42:42;9.80;99.90
19007;DHT22;9636;47.382;8.480;2024-02-16T01:45:10;9.70;99.90
19007;DHT22;9636;47.382;8.480;2024-02-16T01:47:38;9.80;99.90
19007;DHT22;9636;47.382;8.480;2024-02-16T01:50:06;9.90;99.90
19007;DHT22;9636;47.382;8.480;2024-02-16T01:52:33;9.90;99.90
19007;DHT22;9636;47.382;8.480;2024-02-16T01:55:03;10.10;99.90
19007;DHT22;9636;47.382;8.480;2024-02-16T01:57:32;10.20;99.90
19007;DHT22;9636;47.382;8.480;2024-02-16T01:59:59;10.10;99.90
19007;DHT22;9636;47.382;8.480;2024-02-16T02:02:26;9.90;99.90
19007;DHT22;9636;47.382;8.480;2024-02-16T02:04:53;9.90;99.90
19007;DHT22;9636;47.382;8.480;2024-02-16T02:07:25;10.00;99.90
19007;DHT22;9636;47.382;8.480;2024-02-16T02:09:52;10.00;99.90
19007;DHT22;9636;47.382;8.480;2024-02-16T02:12:20;10.00;99.90
19007;DHT22;9636;47.382;8.480;2024-02-16T02:14:48;9.90;99.90
19007;DHT22;9636;47.382;8.480;2024-02-16T02:17:14;9.90;99.90
19007;DHT22;9636;47.382;8.480;2024-02-16T02:19:41;9.90;99.90
19007;DHT22;9636;47.382;8.480;2024-02-16T02:22:14;9.90;99.90
19007;DHT22;9636;47.382;8.480;2024-02-16T02:24:40;10.10;99.90
19007;DHT22;9636;47.382;8.480;2024-02-16T02:27:07;10.10;99.90
19007;DHT22;9636;47.382;8.480;2024-02-16T02:29:34;10.00;99.90
19007;DHT22;9636;47.382;8.480;2024-02-16T02:32:01;10.10;99.90
19007;DHT22;9636;47.382;8.480;2024-02-16T02:34:28;10.00;99.90
19007;DHT22;9636;47.382;8.480;2024-02-16T02:36:54;10.10;99.90
19007;DHT22;9636;47.382;8.480;2024-02-16T02:39:22;10.10;99.90
19007;DHT22;9636;47.382;8.480;2024-02-16T02:41:49;10.10;99.90
19007;DHT22;9636;47.382;8.480;2024-02-16T02:44:16;9.90;99.90
19007;DHT22;9636;47.382;8.480;2024-02-16T02:46:44;9.90;99.90
19007;DHT22;9636;47.382;8.480;2024-02-16T02:49:10;10.00;99.90
19007;DHT22;9636;47.382;8.480;2024-02-16T02:51:37;9.90;99.90
19007;DHT22;9636;47.382;8.480;2024-02-16T02:54:04;10.00;99.90
19007;DHT22;9636;47.382;8.480;2024-02-16T02:56:32;10.10;99.90
19007;DHT22;9636;47.382;8.480;2024-02-16T02:58:59;10.00;99.90
19007;DHT22;9636;47.382;8.480;2024-02-16T03:01:26;9.90;99.90
19007;DHT22;9636;47.382;8.480;2024-02-16T03:03:52;9.80;99.90
19007;DHT22;9636;47.382;8.480;2024-02-16T03:06:20;9.90;99.90
19007;DHT22;9636;47.382;8.480;2024-02-16T03:08:46;9.70;99.90
19007;DHT22;9636;47.382;8.480;2024-02-16T03:11:13;9.90;99.90
19007;DHT22;9636;47.382;8.480;2024-02-16T03:13:41;9.90;99.90
19007;DHT22;9636;47.382;8.480;2024-02-16T03:16:08;9.80;99.90
19007;DHT22;9636;47.382;8.480;2024-02-16T03:18:35;9.90;99.90
19007;DHT22;9636;47.382;8.480;2024-02-16T03:21:02;9.90;99.90
19007;DHT22;9636;47.382;8.480;2024-02-16T03:23:30;9.70;99.90
19007;DHT22;9636;47.382;8.480;2024-02-16T03:25:57;9.90;99.90
19007;DHT22;9636;47.382;8.480;2024-02-16T03:28:23;9.70;99.90
19007;DHT22;9636;47.382;8.480;2024-02-16T03:30:52;9.60;99.90
19007;DHT22;9636;47.382;8.480;2024-02-16T03:33:20;9.40;99.90
19007;DHT22;9636;47.382;8.480;2024-02-16T03:35:47;9.40;99.90
19007;DHT22;9636;47.382;8.480;2024-02-16T03:38:14;9.50;99.90
19007;DHT22;9636;47.382;8.480;2024-02-16T03:40:41;9.50;99.90
19007;DHT22;9636;47.382;8.480;2024-02-16T03:43:07;9.60;99.90
19007;DHT22;9636;47.382;8.480;2024-02-16T03:45:34;9.70;99.90
19007;DHT22;9636;47.382;8.480;2024-02-16T03:48:03;9.70;99.90
19007;DHT22;9636;47.382;8.480;2024-02-16T03:50:29;9.70;99.90
19007;DHT22;9636;47.382;8.480;2024-02-16T03:52:56;9.70;99.90
19007;DHT22;9636;47.382;8.480;2024-02-16T03:55:25;9.80;99.90
19007;DHT22;9636;47.382;8.480;2024-02-16T03:57:51;9.60;99.90
19007;DHT22;9636;47.382;8.480;2024-02-16T04:00:18;9.70;99.90
19007;DHT22;9636;47.382;8.480;2024-02-16T04:02:46;9.60;99.90
19007;DHT22;9636;47.382;8.480;2024-02-16T04:05:14;9.60;99.90
19007;DHT22;9636;47.382;8.480;2024-02-16T04:07:41;9.50;99.90
19007;DHT22;9636;47.382;8.480;2024-02-16T04:10:08;9.40;99.90
19007;DHT22;9636;47.382;8.480;2024-02-16T04:12:35;9.40;99.90
19007;DHT22;9636;47.382;8.480;2024-02-16T04:15:03;9.30;99.90
19007;DHT22;9636;47.382;8.480;2024-02-16T04:17:30;9.30;99.90
19007;DHT22;9636;47.382;8.480;2024-02-16T04:19:57;9.30;99.90
19007;DHT22;9636;47.382;8.480;2024-02-16T04:22:25;9.30;99.90
19007;DHT22;9636;47.382;8.480;2024-02-16T04:24:52;9.30;99.90
19007;DHT22;9636;47.382;8.480;2024-02-16T04:27:19;9.20;99.90
19007;DHT22;9636;47.382;8.480;2024-02-16T04:29:46;9.20;99.90
19007;DHT22;9636;47.382;8.480;2024-02-16T04:32:12;9.30;99.90
19007;DHT22;9636;47.382;8.480;2024-02-16T04:34:39;9.40;99.90
19007;DHT22;9636;47.382;8.480;2024-02-16T04:37:06;9.30;99.90
19007;DHT22;9636;47.382;8.480;2024-02-16T04:39:34;9.30;99.90
19007;DHT22;9636;47.382;8.480;2024-02-16T04:42:01;9.30;99.90
19007;DHT22;9636;47.382;8.480;2024-02-16T04:44:28;9.40;99.90
19007;DHT22;9636;47.382;8.480;2024-02-16T04:46:55;9.40;99.90
19007;DHT22;9636;47.382;8.480;2024-02-16T04:49:22;9.40;99.90
19007;DHT22;9636;47.382;8.480;2024-02-16T04:51:49;9.30;99.90
19007;DHT22;9636;47.382;8.480;2024-02-16T04:54:16;9.10;99.90
19007;DHT22;9636;47.382;8.480;2024-02-16T04:56:44;8.90;99.90
19007;DHT22;9636;47.382;8.480;2024-02-16T04:59:10;8.90;99.90
19007;DHT22;9636;47.382;8.480;2024-02-16T05:01:37;9.10;99.90
19007;DHT22;9636;47.382;8.480;2024-02-16T05:04:04;9.20;99.90
19007;DHT22;9636;47.382;8.480;2024-02-16T05:06:32;9.30;99.90
19007;DHT22;9636;47.382;8.480;2024-02-16T05:08:59;9.30;99.90
19007;DHT22;9636;47.382;8.480;2024-02-16T05:11:26;9.40;99.90
19007;DHT22;9636;47.382;8.480;2024-02-16T05:13:56;9.40;99.90
19007;DHT22;9636;47.382;8.480;2024-02-16T05:16:23;9.40;99.90
19007;DHT22;9636;47.382;8.480;2024-02-16T05:18:51;9.50;99.90
19007;DHT22;9636;47.382;8.480;2024-02-16T05:21:18;9.50;99.90
19007;DHT22;9636;47.382;8.480;2024-02-16T05:23:44;9.50;99.90
19007;DHT22;9636;47.382;8.480;2024-02-16T05:26:11;9.40;99.90
19007;DHT22;9636;47.382;8.480;2024-02-16T05:28:38;9.50;99.90
19007;DHT22;9636;47.382;8.480;2024-02-16T05:31:15;9.50;99.90
19007;DHT22;9636;47.382;8.480;2024-02-16T05:33:43;9.50;99.90
19007;DHT22;9636;47.382;8.480;2024-02-16T05:36:10;9.40;99.90
19007;DHT22;9636;47.382;8.480;2024-02-16T05:38:37;9.30;99.90
19007;DHT22;9636;47.382;8.480;2024-02-16T05:41:08;9.30;99.90
19007;DHT22;9636;47.382;8.480;2024-02-16T05:43:36;9.20;99.90
19007;DHT22;9636;47.382;8.480;2024-02-16T05:46:04;9.20;99.90
19007;DHT22;9636;47.382;8.480;2024-02-16T05:48:33;9.30;99.90
19007;DHT22;9636;47.382;8.480;2024-02-16T05:51:03;9.20;99.90
19007;DHT22;9636;47.382;8.480;2024-02-16T05:53:30;9.20;99.90
19007;DHT22;9636;47.382;8.480;2024-02-16T05:55:57;9.20;99.90
19007;DHT22;9636;47.382;8.480;2024-02-16T05:58:24;9.20;99.90
19007;DHT22;9636;47.382;8.480;2024-02-16T06:00:51;9.20;99.90
19007;DHT22;9636;47.382;8.480;2024-02-16T06:03:18;9.20;99.90
19007;DHT22;9636;47.382;8.480;2024-02-16T06:05:46;9.20;99.90
19007;DHT22;9636;47.382;8.480;2024-02-16T06:08:13;9.20;99.90
19007;DHT22;9636;47.382;8.480;2024-02-16T06:10:41;9.20;99.90
19007;DHT22;9636;47.382;8.480;2024-02-16T06:13:08;9.20;99.90
19007;DHT22;9636;47.382;8.480;2024-02-16T06:15:35;9.10;99.90
19007;DHT22;9636;47.382;8.480;2024-02-16T06:18:03;9.10;99.90
19007;DHT22;9636;47.382;8.480;2024-02-16T06:20:30;9.20;99.90
19007;DHT22;9636;47.382;8.480;2024-02-16T06:22:58;9.20;99.90
19007;DHT22;9636;47.382;8.480;2024-02-16T06:25:24;9.00;99.90
19007;DHT22;9636;47.382;8.480;2024-02-16T06:27:51;9.20;99.90
19007;DHT22;9636;47.382;8.480;2024-02-16T06:30:18;9.20;99.90
19007;DHT22;9636;47.382;8.480;2024-02-16T06:32:45;9.30;99.90
19007;DHT22;9636;47.382;8.480;2024-02-16T06:35:11;9.30;99.90
19007;DHT22;9636;47.382;8.480;2024-02-16T06:37:38;9.30;99.90
19007;DHT22;9636;47.382;8.480;2024-02-16T06:40:08;9.30;99.90
19007;DHT22;9636;47.382;8.480;2024-02-16T06:42:36;9.30;99.90
19007;DHT22;9636;47.382;8.480;2024-02-16T06:45:03;9.30;99.90
19007;DHT22;9636;47.382;8.480;2024-02-16T06:47:30;9.30;99.90
19007;DHT22;9636;47.382;8.480;2024-02-16T06:49:57;9.40;99.90
19007;DHT22;9636;47.382;8.480;2024-02-16T06:52:24;9.40;99.90
19007;DHT22;9636;47.382;8.480;2024-02-16T06:54:51;9.30;99.90
19007;DHT22;9636;47.382;8.480;2024-02-16T06:57:20;9.20;99.90
19007;DHT22;9636;47.382;8.480;2024-02-16T06:59:47;9.30;99.90
19007;DHT22;9636;47.382;8.480;2024-02-16T07:02:14;9.20;99.90
19007;DHT22;9636;47.382;8.480;2024-02-16T07:04:41;9.20;99.90
19007;DHT22;9636;47.382;8.480;2024-02-16T07:07:08;9.20;99.90
19007;DHT22;9636;47.382;8.480;2024-02-16T07:09:35;9.30;99.90
19007;DHT22;9636;47.382;8.480;2024-02-16T07:12:02;9.30;99.90
19007;DHT22;9636;47.382;8.480;2024-02-16T07:14:31;9.20;99.90
19007;DHT22;9636;47.382;8.480;2024-02-16T07:16:58;9.30;99.90
19007;DHT22;9636;47.382;8.480;2024-02-16T07:19:25;9.30;99.90
19007;DHT22;9636;47.382;8.480;2024-02-16T07:21:52;9.40;99.90
19007;DHT22;9636;47.382;8.480;2024-02-16T07:24:19;9.40;99.90
19007;DHT22;9636;47.382;8.480;2024-02-16T07:26:45;9.20;99.90
19007;DHT22;9636;47.382;8.480;2024-02-16T07:29:12;9.20;99.90
19007;DHT22;9636;47.382;8.480;2024-02-16T07:31:43;9.20;99.90
19007;DHT22;9636;47.382;8.480;2024-02-16T07:34:10;9.20;99.90
19007;DHT22;9636;47.382;8.480;2024-02-16T07:36:37;9.40;99.90
19007;DHT22;9636;47.382;8.480;2024-02-16T07:39:04;9.50;99.90
19007;DHT22;9636;47.382;8.480;2024-02-16T07:41:31;9.50;99.90
19007;DHT22;9636;47.382;8.480;2024-02-16T07:43:58;9.60;99.90
19007;DHT22;9636;47.382;8.480;2024-02-16T07:46:25;9.60;99.90
19007;DHT22;9636;47.382;8.480;2024-02-16T07:48:53;9.80;99.90
19007;DHT22;9636;47.382;8.480;2024-02-16T07:51:19;9.90;99.90
19007;DHT22;9636;47.382;8.480;2024-02-16T07:53:47;9.90;99.90
19007;DHT22;9636;47.382;8.480;2024-02-16T07:56:14;9.80;99.90
19007;DHT22;9636;47.382;8.480;2024-02-16T07:58:41;9.90;99.90
19007;DHT22;9636;47.382;8.480;2024-02-16T08:01:08;10.00;99.90
19007;DHT22;9636;47.382;8.480;2024-02-16T08:03:36;10.00;99.90
19007;DHT22;9636;47.382;8.480;2024-02-16T08:06:05;10.00;99.90
19007;DHT22;9636;47.382;8.480;2024-02-16T08:08:32;10.00;99.90
19007;DHT22;9636;47.382;8.480;2024-02-16T08:10:59;10.00;99.90
19007;DHT22;9636;47.382;8.480;2024-02-16T08:13:26;10.10;99.90
19007;DHT22;9636;47.382;8.480;2024-02-16T08:15:53;10.20;99.90
19007;DHT22;9636;47.382;8.480;2024-02-16T08:18:20;10.20;99.90
19007;DHT22;9636;47.382;8.480;2024-02-16T08:20:47;10.30;99.90
19007;DHT22;9636;47.382;8.480;2024-02-16T08:23:16;10.20;99.90
19007;DHT22;9636;47.382;8.480;2024-02-16T08:25:43;10.30;99.90
19007;DHT22;9636;47.382;8.480;2024-02-16T08:28:10;10.30;99.90
19007;DHT22;9636;47.382;8.480;2024-02-16T08:30:36;10.40;99.90
19007;DHT22;9636;47.382;8.480;2024-02-16T08:33:07;10.40;99.90
19007;DHT22;9636;47.382;8.480;2024-02-16T08:35:33;10.40;99.90
19007;DHT22;9636;47.382;8.480;2024-02-16T08:38:00;10.40;99.90
19007;DHT22;9636;47.382;8.480;2024-02-16T08:40:28;10.50;99.90
19007;DHT22;9636;47.382;8.480;2024-02-16T08:42:55;10.40;99.90
19007;DHT22;9636;47.382;8.480;2024-02-16T08:45:22;10.50;99.90
19007;DHT22;9636;47.382;8.480;2024-02-16T08:47:49;10.40;99.90
19007;DHT22;9636;47.382;8.480;2024-02-16T08:50:16;10.50;99.90
19007;DHT22;9636;47.382;8.480;2024-02-16T08:52:43;10.60;99.90
19007;DHT22;9636;47.382;8.480;2024-02-16T08:55:10;10.70;99.90
19007;DHT22;9636;47.382;8.480;2024-02-16T08:57:39;10.70;99.90
19007;DHT22;9636;47.382;8.480;2024-02-16T09:00:07;10.80;99.90
19007;DHT22;9636;47.382;8.480;2024-02-16T09:02:35;10.80;99.90
19007;DHT22;9636;47.382;8.480;2024-02-16T09:05:01;10.90;99.90
19007;DHT22;9636;47.382;8.480;2024-02-16T09:07:28;11.00;99.90
19007;DHT22;9636;47.382;8.480;2024-02-16T09:09:55;11.10;99.90
19007;DHT22;9636;47.382;8.480;2024-02-16T09:12:23;11.20;99.90
19007;DHT22;9636;47.382;8.480;2024-02-16T09:14:51;11.20;99.90
19007;DHT22;9636;47.382;8.480;2024-02-16T09:17:18;11.20;99.90
19007;DHT22;9636;47.382;8.480;2024-02-16T09:19:45;11.30;99.90
19007;DHT22;9636;47.382;8.480;2024-02-16T09:22:12;11.30;99.90
19007;DHT22;9636;47.382;8.480;2024-02-16T09:24:39;11.40;99.90
19007;DHT22;9636;47.382;8.480;2024-02-16T09:27:06;11.50;99.90
19007;DHT22;9636;47.382;8.480;2024-02-16T09:29:35;11.40;99.90
19007;DHT22;9636;47.382;8.480;2024-02-16T09:32:04;11.40;99.90
19007;DHT22;9636;47.382;8.480;2024-02-16T09:34:31;11.50;99.90
19007;DHT22;9636;47.382;8.480;2024-02-16T09:37:00;11.60;99.90
19007;DHT22;9636;47.382;8.480;2024-02-16T09:39:27;11.70;99.90
19007;DHT22;9636;47.382;8.480;2024-02-16T09:41:54;11.70;99.90
19007;DHT22;9636;47.382;8.480;2024-02-16T09:44:22;11.80;99.90
19007;DHT22;9636;47.382;8.480;2024-02-16T09:46:50;11.90;99.90
19007;DHT22;9636;47.382;8.480;2024-02-16T09:49:21;11.90;99.90
19007;DHT22;9636;47.382;8.480;2024-02-16T09:51:48;11.90;99.90
19007;DHT22;9636;47.382;8.480;2024-02-16T09:54:15;12.00;99.90
19007;DHT22;9636;47.382;8.480;2024-02-16T09:56:42;12.00;99.90
19007;DHT22;9636;47.382;8.480;2024-02-16T09:59:10;12.10;99.90
19007;DHT22;9636;47.382;8.480;2024-02-16T10:01:37;12.10;99.90
19007;DHT22;9636;47.382;8.480;2024-02-16T10:04:07;12.20;99.90
19007;DHT22;9636;47.382;8.480;2024-02-16T10:06:47;12.30;99.90
19007;DHT22;9636;47.382;8.480;2024-02-16T10:09:23;12.30;99.90
19007;DHT22;9636;47.382;8.480;2024-02-16T10:11:50;12.40;99.90
19007;DHT22;9636;47.382;8.480;2024-02-16T10:14:17;12.50;99.90
19007;DHT22;9636;47.382;8.480;2024-02-16T10:16:44;12.50;99.90
19007;DHT22;9636;47.382;8.480;2024-02-16T10:19:11;12.60;99.90
19007;DHT22;9636;47.382;8.480;2024-02-16T10:21:38;12.70;99.90
19007;DHT22;9636;47.382;8.480;2024-02-16T10:24:08;12.80;99.90
19007;DHT22;9636;47.382;8.480;2024-02-16T10:26:35;13.00;99.90
19007;DHT22;9636;47.382;8.480;2024-02-16T10:29:04;13.10;99.90
19007;DHT22;9636;47.382;8.480;2024-02-16T10:31:32;13.20;99.90
19007;DHT22;9636;47.382;8.480;2024-02-16T10:34:00;13.30;99.90
19007;DHT22;9636;47.382;8.480;2024-02-16T10:36:31;13.40;99.90
19007;DHT22;9636;47.382;8.480;2024-02-16T10:39:00;13.60;99.90
19007;DHT22;9636;47.382;8.480;2024-02-16T10:41:33;13.90;99.90
19007;DHT22;9636;47.382;8.480;2024-02-16T10:44:02;14.20;99.90
19007;DHT22;9636;47.382;8.480;2024-02-16T10:46:29;14.40;99.90
19007;DHT22;9636;47.382;8.480;2024-02-16T10:48:56;14.80;99.90
19007;DHT22;9636;47.382;8.480;2024-02-16T10:51:28;15.10;99.90
19007;DHT22;9636;47.382;8.480;2024-02-16T10:53:58;15.50;99.90
19007;DHT22;9636;47.382;8.480;2024-02-16T10:56:34;15.70;99.90
19007;DHT22;9636;47.382;8.480;2024-02-16T10:59:05;15.90;99.90
19007;DHT22;9636;47.382;8.480;2024-02-16T11:01:37;15.80;99.90
19007;DHT22;9636;47.382;8.480;2024-02-16T11:04:05;15.70;99.80
19007;DHT22;9636;47.382;8.480;2024-02-16T11:06:45;15.60;99.90
19007;DHT22;9636;47.382;8.480;2024-02-16T11:09:23;15.50;99.90
19007;DHT22;9636;47.382;8.480;2024-02-16T11:11:54;15.50;99.90
19007;DHT22;9636;47.382;8.480;2024-02-16T11:14:21;15.60;99.90
19007;DHT22;9636;47.382;8.480;2024-02-16T11:16:53;15.70;99.70
19007;DHT22;9636;47.382;8.480;2024-02-16T11:19:21;15.80;98.80
19007;DHT22;9636;47.382;8.480;2024-02-16T11:21:58;15.80;99.40
19007;DHT22;9636;47.382;8.480;2024-02-16T11:24:30;15.90;98.40
19007;DHT22;9636;47.382;8.480;2024-02-16T11:27:01;16.10;98.10
19007;DHT22;9636;47.382;8.480;2024-02-16T11:29:31;16.60;98.90
19007;DHT22;9636;47.382;8.480;2024-02-16T11:31:58;16.80;97.80
19007;DHT22;9636;47.382;8.480;2024-02-16T11:34:26;16.90;97.60
19007;DHT22;9636;47.382;8.480;2024-02-16T11:36:54;16.80;96.60
19007;DHT22;9636;47.382;8.480;2024-02-16T11:39:21;16.80;97.60
19007;DHT22;9636;47.382;8.480;2024-02-16T11:42:00;17.10;97.90
19007;DHT22;9636;47.382;8.480;2024-02-16T11:44:28;17.20;97.50
19007;DHT22;9636;47.382;8.480;2024-02-16T11:46:55;17.10;96.70
19007;DHT22;9636;47.382;8.480;2024-02-16T11:49:22;17.30;97.40
19007;DHT22;9636;47.382;8.480;2024-02-16T11:51:49;17.60;97.10
19007;DHT22;9636;47.382;8.480;2024-02-16T11:54:16;17.80;95.80
19007;DHT22;9636;47.382;8.480;2024-02-16T11:56:43;17.70;96.10
19007;DHT22;9636;47.382;8.480;2024-02-16T11:59:13;17.50;96.80
19007;DHT22;9636;47.382;8.480;2024-02-16T12:01:51;17.50;97.30
19007;DHT22;9636;47.382;8.480;2024-02-16T12:04:22;17.40;97.10
19007;DHT22;9636;47.382;8.480;2024-02-16T12:06:51;17.40;97.50
19007;DHT22;9636;47.382;8.480;2024-02-16T12:09:18;17.40;96.90
19007;DHT22;9636;47.382;8.480;2024-02-16T12:11:47;17.30;97.00
19007;DHT22;9636;47.382;8.480;2024-02-16T12:14:15;17.20;97.20
19007;DHT22;9636;47.382;8.480;2024-02-16T12:16:46;17.10;98.40
19007;DHT22;9636;47.382;8.480;2024-02-16T12:19:13;17.10;98.20
19007;DHT22;9636;47.382;8.480;2024-02-16T12:21:39;16.90;97.50
19007;DHT22;9636;47.382;8.480;2024-02-16T12:24:07;16.90;97.80
19007;DHT22;9636;47.382;8.480;2024-02-16T12:26:33;16.90;98.20
19007;DHT22;9636;47.382;8.480;2024-02-16T12:29:00;16.90;98.50
19007;DHT22;9636;47.382;8.480;2024-02-16T12:31:30;16.90;98.40
19007;DHT22;9636;47.382;8.480;2024-02-16T12:33:56;16.80;98.60
19007;DHT22;9636;47.382;8.480;2024-02-16T12:36:23;16.70;97.80
19007;DHT22;9636;47.382;8.480;2024-02-16T12:38:50;16.70;98.00
19007;DHT22;9636;47.382;8.480;2024-02-16T12:41:17;16.60;98.30
19007;DHT22;9636;47.382;8.480;2024-02-16T12:43:44;16.60;98.00
19007;DHT22;9636;47.382;8.480;2024-02-16T12:46:10;16.60;98.60
19007;DHT22;9636;47.382;8.480;2024-02-16T12:48:38;16.70;98.90
19007;DHT22;9636;47.382;8.480;2024-02-16T12:51:05;16.70;98.60
19007;DHT22;9636;47.382;8.480;2024-02-16T12:53:32;16.70;98.60
19007;DHT22;9636;47.382;8.480;2024-02-16T12:56:06;16.60;98.60
19007;DHT22;9636;47.382;8.480;2024-02-16T12:58:32;16.60;98.60
19007;DHT22;9636;47.382;8.480;2024-02-16T13:01:00;16.60;98.70
19007;DHT22;9636;47.382;8.480;2024-02-16T13:03:26;16.60;99.30
19007;DHT22;9636;47.382;8.480;2024-02-16T13:05:55;16.60;98.80
19007;DHT22;9636;47.382;8.480;2024-02-16T13:08:22;16.60;99.10
19007;DHT22;9636;47.382;8.480;2024-02-16T13:10:49;16.60;98.70
19007;DHT22;9636;47.382;8.480;2024-02-16T13:13:16;16.60;99.00
19007;DHT22;9636;47.382;8.480;2024-02-16T13:15:43;16.60;98.80
19007;DHT22;9636;47.382;8.480;2024-02-16T13:18:09;16.70;99.50
19007;DHT22;9636;47.382;8.480;2024-02-16T13:20:36;16.70;99.40
19007;DHT22;9636;47.382;8.480;2024-02-16T13:23:04;16.70;99.50
19007;DHT22;9636;47.382;8.480;2024-02-16T13:25:31;16.80;99.90
19007;DHT22;9636;47.382;8.480;2024-02-16T13:27:58;16.80;99.90
19007;DHT22;9636;47.382;8.480;2024-02-16T13:30:25;16.80;99.70
19007;DHT22;9636;47.382;8.480;2024-02-16T13:32:53;16.80;99.90
19007;DHT22;9636;47.382;8.480;2024-02-16T13:35:20;16.80;99.90
19007;DHT22;9636;47.382;8.480;2024-02-16T13:37:47;16.80;99.90
19007;DHT22;9636;47.382;8.480;2024-02-16T13:40:15;16.80;99.90
19007;DHT22;9636;47.382;8.480;2024-02-16T13:42:43;17.00;99.90
19007;DHT22;9636;47.382;8.480;2024-02-16T13:45:11;17.10;99.90
19007;DHT22;9636;47.382;8.480;2024-02-16T13:47:38;17.10;99.90
19007;DHT22;9636;47.382;8.480;2024-02-16T13:50:06;17.10;99.90
19007;DHT22;9636;47.382;8.480;2024-02-16T13:52:33;17.20;99.90
19007;DHT22;9636;47.382;8.480;2024-02-16T13:55:00;17.10;99.90
19007;DHT22;9636;47.382;8.480;2024-02-16T13:57:28;17.10;99.90
19007;DHT22;9636;47.382;8.480;2024-02-16T13:59:55;17.20;99.90
19007;DHT22;9636;47.382;8.480;2024-02-16T14:02:22;17.20;99.90
19007;DHT22;9636;47.382;8.480;2024-02-16T14:04:49;17.30;99.90
19007;DHT22;9636;47.382;8.480;2024-02-16T14:07:16;17.30;99.90
19007;DHT22;9636;47.382;8.480;2024-02-16T14:09:43;17.20;99.90
19007;DHT22;9636;47.382;8.480;2024-02-16T14:12:10;17.20;99.90
19007;DHT22;9636;47.382;8.480;2024-02-16T14:14:38;17.20;99.90
19007;DHT22;9636;47.382;8.480;2024-02-16T14:17:05;17.20;99.90
19007;DHT22;9636;47.382;8.480;2024-02-16T14:19:32;17.30;99.90
19007;DHT22;9636;47.382;8.480;2024-02-16T14:22:02;17.40;99.90
19007;DHT22;9636;47.382;8.480;2024-02-16T14:24:32;17.40;99.80
19007;DHT22;9636;47.382;8.480;2024-02-16T14:26:59;17.40;99.90
19007;DHT22;9636;47.382;8.480;2024-02-16T14:29:25;17.60;99.90
19007;DHT22;9636;47.382;8.480;2024-02-16T14:31:55;17.70;99.90
19007;DHT22;9636;47.382;8.480;2024-02-16T14:34:22;17.60;99.90
19007;DHT22;9636;47.382;8.480;2024-02-16T14:36:49;17.70;99.90
19007;DHT22;9636;47.382;8.480;2024-02-16T14:39:16;17.70;99.90
19007;DHT22;9636;47.382;8.480;2024-02-16T14:41:42;17.80;99.90
19007;DHT22;9636;47.382;8.480;2024-02-16T14:44:09;17.80;99.90
19007;DHT22;9636;47.382;8.480;2024-02-16T14:46:36;17.80;99.90
19007;DHT22;9636;47.382;8.480;2024-02-16T14:49:05;17.70;99.90
19007;DHT22;9636;47.382;8.480;2024-02-16T14:51:33;17.80;99.90
19007;DHT22;9636;47.382;8.480;2024-02-16T14:54:00;17.80;99.90
19007;DHT22;9636;47.382;8.480;2024-02-16T14:56:29;17.80;99.90
19007;DHT22;9636;47.382;8.480;2024-02-16T14:58:56;17.80;99.90
19007;DHT22;9636;47.382;8.480;2024-02-16T15:01:22;17.80;99.90
19007;DHT22;9636;47.382;8.480;2024-02-16T15:03:49;17.80;99.90
19007;DHT22;9636;47.382;8.480;2024-02-16T15:06:18;17.70;99.90
19007;DHT22;9636;47.382;8.480;2024-02-16T15:08:44;17.70;99.90
19007;DHT22;9636;47.382;8.480;2024-02-16T15:11:11;17.70;99.90
19007;DHT22;9636;47.382;8.480;2024-02-16T15:13:38;17.70;99.90
19007;DHT22;9636;47.382;8.480;2024-02-16T15:16:06;17.60;99.90
19007;DHT22;9636;47.382;8.480;2024-02-16T15:18:34;17.60;99.90
19007;DHT22;9636;47.382;8.480;2024-02-16T15:21:01;17.50;99.90
19007;DHT22;9636;47.382;8.480;2024-02-16T15:23:29;17.50;99.90
19007;DHT22;9636;47.382;8.480;2024-02-16T15:25:56;17.50;99.90
19007;DHT22;9636;47.382;8.480;2024-02-16T15:28:24;17.40;99.90
19007;DHT22;9636;47.382;8.480;2024-02-16T15:30:51;17.20;99.90
19007;DHT22;9636;47.382;8.480;2024-02-16T15:33:18;17.20;99.90
19007;DHT22;9636;47.382;8.480;2024-02-16T15:35:45;17.00;99.90
19007;DHT22;9636;47.382;8.480;2024-02-16T15:38:11;17.00;99.90
19007;DHT22;9636;47.382;8.480;2024-02-16T15:40:40;16.80;99.90
19007;DHT22;9636;47.382;8.480;2024-02-16T15:43:07;16.90;99.90
19007;DHT22;9636;47.382;8.480;2024-02-16T15:45:36;16.80;99.90
19007;DHT22;9636;47.382;8.480;2024-02-16T15:48:06;16.80;99.90
19007;DHT22;9636;47.382;8.480;2024-02-16T15:50:33;16.80;99.90
19007;DHT22;9636;47.382;8.480;2024-02-16T15:53:00;16.80;99.90
19007;DHT22;9636;47.382;8.480;2024-02-16T15:55:27;16.70;99.90